createdAt,value
2022-12-03T00:04:33.119Z,43.65
2022-12-03T00:09:34.782Z,37.78
2022-12-03T00:14:41.252Z,48.17
2022-12-03T00:19:45.732Z,41.20
2022-12-03T00:24:47.142Z,46.67
2022-12-03T00:29:48.592Z,44.10
2022-12-03T00:34:50.218Z,42.58
2022-12-03T00:39:51.732Z,45.38
2022-12-03T00:44:53.531Z,45.42
2022-12-03T00:49:55.075Z,44.00
2022-12-03T00:54:56.616Z,48.70
2022-12-03T00:59:58.149Z,49.03
2022-12-03T01:04:59.720Z,46.40
2022-12-03T01:10:01.253Z,49.50
2022-12-03T01:15:02.858Z,44.35
2022-12-03T01:20:05.752Z,40.53
2022-12-03T01:25:07.428Z,39.75
2022-12-03T01:30:10.746Z,45.75
2022-12-03T01:35:12.224Z,46.55
2022-12-03T01:40:19.443Z,48.28
2022-12-03T01:45:23.698Z,46.78
2022-12-03T01:50:31.674Z,50.20
2022-12-03T01:55:33.207Z,50.65
2022-12-03T02:00:34.714Z,52.95
2022-12-03T02:05:37.370Z,48.40
2022-12-03T02:10:38.845Z,45.13
2022-12-03T02:15:40.639Z,48.88
2022-12-03T02:21:20.098Z,46.47
2022-12-03T02:26:21.719Z,46.00
2022-12-03T02:31:24.121Z,46.20
2022-12-03T02:36:25.729Z,47.70
2022-12-03T02:41:45.975Z,44.63
2022-12-03T02:46:47.448Z,46.88
2022-12-03T02:51:48.975Z,47.15
2022-12-03T02:56:50.521Z,43.33
2022-12-03T03:01:52.107Z,45.65
2022-12-03T03:06:53.599Z,43.13
2022-12-03T03:11:55.088Z,46.58
2022-12-03T03:16:56.670Z,48.53
2022-12-03T03:21:58.483Z,50.13
2022-12-03T03:26:59.987Z,43.15
2022-12-03T03:32:03.020Z,49.05
2022-12-03T03:37:04.614Z,43.58
2022-12-03T03:42:06.168Z,40.92
2022-12-03T03:47:07.678Z,37.65
2022-12-03T03:52:11.589Z,40.90
2022-12-03T03:57:13.098Z,45.45
2022-12-03T04:02:19.668Z,44.85
2022-12-03T04:07:21.092Z,44.10
2022-12-03T04:12:40.963Z,41.83
2022-12-03T04:17:42.438Z,45.58
2022-12-03T04:22:43.864Z,41.90
2022-12-03T04:28:04.270Z,41.60
2022-12-03T04:33:24.148Z,43.00
2022-12-03T04:38:25.577Z,48.50
2022-12-03T04:43:32.488Z,47.40
2022-12-03T04:48:33.930Z,47.35
2022-12-03T04:53:36.297Z,44.50
2022-12-03T04:58:37.871Z,47.08
2022-12-03T05:03:39.716Z,44.60
2022-12-03T05:08:41.152Z,52.38
2022-12-03T05:13:43.197Z,40.33
2022-12-03T05:18:44.921Z,42.58
2022-12-03T05:23:46.350Z,44.50
2022-12-03T05:28:48.017Z,43.47
2022-12-03T05:33:49.439Z,44.97
2022-12-03T05:38:50.876Z,45.55
2022-12-03T05:43:52.340Z,48.72
2022-12-03T05:48:53.796Z,47.75
2022-12-03T05:53:55.274Z,54.15
2022-12-03T05:58:56.680Z,49.45
2022-12-03T06:03:58.177Z,45.63
2022-12-03T06:08:59.695Z,49.90
2022-12-03T06:14:01.390Z,49.75
2022-12-03T06:19:02.843Z,44.85
2022-12-03T06:24:04.535Z,48.08
2022-12-03T06:29:05.948Z,45.22
2022-12-03T06:34:07.460Z,50.40
2022-12-03T06:39:08.960Z,49.80
2022-12-03T06:44:10.922Z,47.95
2022-12-03T06:49:12.333Z,45.85
2022-12-03T06:54:13.796Z,55.70
2022-12-03T06:59:15.210Z,55.30
2022-12-03T07:04:16.636Z,44.72
2022-12-03T07:09:18.185Z,50.30
2022-12-03T07:14:19.818Z,52.13
2022-12-03T07:19:21.284Z,56.72
2022-12-03T07:24:22.708Z,51.47
2022-12-03T07:29:24.733Z,49.35
2022-12-03T07:34:26.251Z,45.00
2022-12-03T07:39:27.670Z,53.65
2022-12-03T07:44:31.300Z,53.60
2022-12-03T07:49:33.383Z,52.42
2022-12-03T07:54:35.003Z,50.10
2022-12-03T07:59:36.448Z,48.00
2022-12-03T08:04:37.851Z,53.50
2022-12-03T08:09:40.835Z,50.45
2022-12-03T08:14:42.594Z,42.08
2022-12-03T08:19:47.170Z,54.22
2022-12-03T08:24:48.607Z,48.63
2022-12-03T08:29:50.023Z,51.83
2022-12-03T08:34:51.686Z,53.40
2022-12-03T08:39:54.860Z,55.10
2022-12-03T08:44:57.165Z,53.00
2022-12-03T08:50:24.997Z,53.28
2022-12-03T08:55:36.980Z,54.13
2022-12-03T09:00:38.450Z,51.03
2022-12-03T09:05:40.536Z,54.90
2022-12-03T09:10:42.008Z,54.83
2022-12-03T09:15:43.447Z,58.55
2022-12-03T09:20:44.934Z,56.08
2022-12-03T09:25:46.348Z,57.28
2022-12-03T09:30:47.851Z,50.70
2022-12-03T09:35:49.343Z,56.47
2022-12-03T09:40:50.887Z,63.05
2022-12-03T09:45:52.516Z,63.35
2022-12-03T09:50:54.251Z,60.72
2022-12-03T09:55:59.021Z,54.60
2022-12-03T10:01:00.546Z,66.95
2022-12-03T10:06:02.101Z,62.50
2022-12-03T10:11:03.683Z,59.50
2022-12-03T10:16:05.433Z,65.43
2022-12-03T10:21:19.487Z,60.20
2022-12-03T10:26:39.226Z,59.72
2022-12-03T10:31:40.817Z,66.03
2022-12-03T10:36:42.254Z,76.65
2022-12-03T10:41:44.693Z,65.38
2022-12-03T10:47:03.978Z,67.25
2022-12-03T10:52:06.906Z,65.15
2022-12-03T10:57:09.311Z,67.43
2022-12-03T11:02:21.087Z,59.90
2022-12-03T11:07:24.376Z,73.10
2022-12-03T11:12:28.819Z,63.72
2022-12-03T11:17:49.774Z,65.78
2022-12-03T11:22:55.798Z,73.18
2022-12-03T11:28:12.831Z,64.38
2022-12-03T11:33:32.062Z,67.72
2022-12-03T11:38:52.943Z,59.65
2022-12-03T11:43:56.179Z,69.65
2022-12-03T11:48:59.770Z,66.60
2022-12-03T11:54:01.257Z,68.97
2022-12-03T11:59:04.567Z,65.75
2022-12-03T12:04:07.867Z,66.22
2022-12-03T12:09:09.863Z,62.97
2022-12-03T12:14:13.053Z,72.28
2022-12-03T12:19:43.167Z,71.68
2022-12-03T12:24:47.122Z,69.63
2022-12-03T12:30:12.879Z,72.97
2022-12-03T12:35:24.979Z,68.22
2022-12-03T12:40:29.263Z,75.07
2022-12-03T12:45:34.889Z,71.10
2022-12-03T12:50:44.672Z,71.63
2022-12-03T12:55:47.977Z,72.43
2022-12-03T13:00:55.696Z,67.43
2022-12-03T13:05:57.785Z,64.28
2022-12-03T13:11:03.046Z,71.35
2022-12-03T13:16:19.158Z,69.80
2022-12-03T13:21:22.790Z,64.03
2022-12-03T13:26:39.315Z,61.58
2022-12-03T13:31:44.969Z,69.22
2022-12-03T13:36:51.972Z,63.53
2022-12-03T13:42:31.510Z,59.67
2022-12-03T13:47:32.975Z,62.45
2022-12-03T13:52:34.901Z,57.30
2022-12-03T13:57:36.315Z,60.22
2022-12-03T14:02:37.770Z,62.70
2022-12-03T14:07:39.466Z,66.57
2022-12-03T14:12:41.005Z,67.47
2022-12-03T14:17:42.465Z,63.50
2022-12-03T14:22:43.962Z,63.47
2022-12-03T14:27:45.422Z,63.53
2022-12-03T14:32:47.458Z,58.25
2022-12-03T14:37:48.922Z,61.55
2022-12-03T14:42:50.401Z,62.05
2022-12-03T14:47:51.822Z,61.17
2022-12-03T14:52:53.406Z,64.10
2022-12-03T14:57:56.383Z,56.78
2022-12-03T15:02:57.821Z,59.58
2022-12-03T15:07:59.406Z,69.75
2022-12-03T15:13:00.989Z,64.93
2022-12-03T15:18:02.403Z,62.45
2022-12-03T15:23:03.898Z,62.15
2022-12-03T15:28:05.510Z,56.85
2022-12-03T15:33:06.943Z,60.97
2022-12-03T15:38:09.390Z,64.85
2022-12-03T15:43:11.116Z,65.60
2022-12-03T15:48:13.786Z,62.13
2022-12-03T15:53:15.248Z,67.70
2022-12-03T15:58:16.687Z,64.95
2022-12-03T16:03:18.167Z,62.00
2022-12-03T16:08:19.702Z,56.90
2022-12-03T16:13:21.235Z,64.82
2022-12-03T16:18:22.755Z,70.55
2022-12-03T16:23:24.231Z,66.45
2022-12-03T16:28:25.705Z,68.65
2022-12-03T16:33:28.031Z,68.38
2022-12-03T16:38:30.998Z,64.75
2022-12-03T16:43:35.605Z,65.68
2022-12-03T16:48:37.571Z,67.28
2022-12-03T16:53:38.998Z,66.43
2022-12-03T16:58:40.678Z,71.05
2022-12-03T17:03:42.322Z,72.78
2022-12-03T17:08:49.068Z,71.18
2022-12-03T17:13:50.986Z,74.35
2022-12-03T17:18:52.474Z,72.57
2022-12-03T17:23:53.891Z,73.50
2022-12-03T17:28:55.403Z,71.05
2022-12-03T17:33:57.857Z,75.00
2022-12-03T17:38:59.306Z,122.28
2022-12-03T17:44:03.558Z,197.55
2022-12-03T17:49:07.477Z,175.48
2022-12-03T17:54:08.900Z,98.53
2022-12-03T17:59:11.306Z,81.47
2022-12-03T18:04:12.778Z,90.55
2022-12-03T18:09:14.227Z,82.55
2022-12-03T18:14:15.732Z,80.50
2022-12-03T18:19:17.183Z,80.82
2022-12-03T18:24:18.710Z,82.10
2022-12-03T18:29:20.176Z,79.82
2022-12-03T18:34:21.614Z,81.97
2022-12-03T18:39:31.610Z,79.90
2022-12-03T18:44:33.931Z,78.47
2022-12-03T18:49:35.364Z,84.40
2022-12-03T18:54:36.787Z,83.38
2022-12-03T18:59:38.572Z,85.30
2022-12-03T19:04:39.980Z,86.65
2022-12-03T19:09:41.893Z,84.22
2022-12-03T19:14:43.420Z,84.57
2022-12-03T19:19:45.013Z,83.10
2022-12-03T19:24:46.503Z,80.15
2022-12-03T19:29:48.964Z,95.53
2022-12-03T19:34:50.450Z,86.18
2022-12-03T19:39:54.964Z,86.05
2022-12-03T19:44:56.573Z,85.85
2022-12-03T19:49:58.046Z,87.47
2022-12-03T19:54:59.633Z,85.45
2022-12-03T20:00:01.244Z,98.07
2022-12-03T20:05:03.053Z,101.68
2022-12-03T20:10:05.134Z,86.75
2022-12-03T20:15:06.857Z,89.97
2022-12-03T20:20:08.891Z,86.35
2022-12-03T20:25:10.481Z,82.57
2022-12-03T20:30:12.260Z,90.80
2022-12-03T20:35:13.783Z,84.25
2022-12-03T20:40:15.383Z,87.63
2022-12-03T20:45:16.890Z,84.43
2022-12-03T20:50:18.348Z,84.85
2022-12-03T20:55:19.774Z,85.07
2022-12-03T21:00:21.659Z,86.25
2022-12-03T21:05:23.176Z,81.00
2022-12-03T21:10:36.420Z,78.05
2022-12-03T21:15:37.894Z,79.00
2022-12-03T21:20:46.680Z,79.88
2022-12-03T21:25:48.096Z,79.80
2022-12-03T21:30:49.641Z,111.65
2022-12-03T21:35:51.098Z,146.55
2022-12-03T21:40:52.827Z,108.88
2022-12-03T21:45:54.293Z,116.45
2022-12-03T21:51:04.719Z,124.43
2022-12-03T21:56:12.004Z,115.03
2022-12-03T22:01:21.774Z,100.40
2022-12-03T22:06:24.466Z,111.38
2022-12-03T22:11:25.883Z,94.00
2022-12-03T22:16:27.339Z,90.97
2022-12-03T22:21:28.812Z,85.38
2022-12-03T22:26:30.224Z,82.07
2022-12-03T22:31:31.738Z,87.38
2022-12-03T22:36:33.174Z,84.97
2022-12-03T22:41:34.630Z,91.25
2022-12-03T22:46:36.160Z,87.07
2022-12-03T22:51:37.646Z,89.28
2022-12-03T22:56:39.685Z,115.57
2022-12-03T23:01:41.537Z,116.45
2022-12-03T23:06:43.660Z,107.55
2022-12-03T23:11:45.485Z,106.18
2022-12-03T23:16:47.389Z,98.63
2022-12-03T23:21:48.840Z,98.03
2022-12-03T23:26:50.294Z,98.68
2022-12-03T23:31:51.744Z,92.97
2022-12-03T23:36:53.179Z,90.63
2022-12-03T23:41:54.630Z,85.20
2022-12-03T23:46:56.083Z,84.47
2022-12-03T23:51:57.616Z,86.60
2022-12-03T23:56:59.284Z,74.13
